Time;durP1;ratioP1;P1;durP2;ratioP2;P2;SDS_P1;SDS_P2;PMS_P1;PMS_P2;Temp;Humidity;BMP_temperature;BMP_pressure;BME280_temperature;BME280_humidity;BME280_pressure;Samples;Min_cycle;Max_cycle;Signal;HPM_P1;HPM_P2
2021/10/25 00:02:18;;;;;;;59.00;24.20;;;;;;;2.24;74.48;101348.80;115119;1195;22521;-82
2021/10/25 00:04:46;;;;;;;57.10;23.60;;;;;;;2.24;74.52;101352.83;114938;1198;23649;-82
2021/10/25 00:07:15;;;;;;;59.40;21.90;;;;;;;2.23;74.57;101343.94;114949;1198;23178;-82
2021/10/25 00:09:43;;;;;;;58.70;23.70;;;;;;;2.22;74.77;101345.27;115062;1198;22472;-83
2021/10/25 00:12:11;;;;;;;57.60;23.40;;;;;;;2.20;74.76;101343.85;114879;1198;25129;-82
2021/10/25 00:14:40;;;;;;;59.00;25.30;;;;;;;2.21;74.89;101343.77;115037;1197;22439;-83
2021/10/25 00:17:08;;;;;;;62.60;24.90;;;;;;;2.19;74.97;101337.86;115077;1197;23609;-81
2021/10/25 00:19:37;;;;;;;61.40;25.00;;;;;;;2.18;74.98;101335.20;115059;1197;23006;-81
2021/10/25 00:22:05;;;;;;;61.90;26.50;;;;;;;2.18;74.96;101332.74;115184;1198;24028;-81
2021/10/25 00:24:33;;;;;;;66.30;27.80;;;;;;;2.19;75.07;101331.96;115040;1198;22605;-82
2021/10/25 00:27:03;;;;;;;67.60;27.90;;;;;;;2.20;75.09;101333.69;115111;1198;22418;-81
2021/10/25 00:29:32;;;;;;;67.60;27.60;;;;;;;2.20;75.15;101334.33;114999;1193;22427;-80
2021/10/25 00:32:01;;;;;;;68.70;27.20;;;;;;;2.20;75.13;101328.50;115253;1197;22528;-82
2021/10/25 00:34:31;;;;;;;65.30;29.70;;;;;;;2.21;75.27;101328.66;115037;1193;23234;-82
2021/10/25 00:37:02;;;;;;;76.30;28.20;;;;;;;2.20;75.37;101324.63;115030;1198;22425;-82
2021/10/25 00:39:32;;;;;;;65.10;29.70;;;;;;;2.19;75.31;101326.84;115083;1198;25817;-82
2021/10/25 00:42:00;;;;;;;72.90;31.60;;;;;;;2.16;75.33;101323.94;115058;1193;22469;-80
2021/10/25 00:44:31;;;;;;;75.90;31.50;;;;;;;2.14;75.35;101321.11;114954;1197;25837;-82
2021/10/25 00:47:04;;;;;;;73.60;31.40;;;;;;;2.12;75.32;101317.80;115112;1198;22649;-82
2021/10/25 00:49:32;;;;;;;70.10;31.00;;;;;;;2.12;75.41;101316.70;115040;1197;22700;-83
2021/10/25 00:52:01;;;;;;;69.10;29.60;;;;;;;2.11;75.42;101314.27;114914;1198;23238;-80
2021/10/25 00:54:33;;;;;;;76.50;31.40;;;;;;;2.11;75.50;101317.58;114618;1198;22438;-82
2021/10/25 00:57:03;;;;;;;76.30;32.80;;;;;;;2.09;75.49;101313.72;114982;1198;22533;-81
2021/10/25 00:59:31;;;;;;;;;;;;;;;2.08;75.48;101311.69;115019;1198;22451;-82
2021/10/25 01:02:00;;;;;;;64.30;28.40;;;;;;;2.05;75.52;101310.50;115159;1198;22909;-81
2021/10/25 01:04:28;;;;;;;68.30;29.30;;;;;;;2.04;75.63;101313.73;114978;1194;25398;-82
2021/10/25 01:06:58;;;;;;;61.40;26.80;;;;;;;2.03;75.69;101312.77;114634;1194;22576;-81
2021/10/25 01:09:29;;;;;;;69.30;27.80;;;;;;;2.02;75.70;101307.27;115098;1196;23779;-82
2021/10/25 01:11:58;;;;;;;63.20;28.00;;;;;;;2.01;75.63;101306.41;115155;1193;22418;-82
2021/10/25 01:14:26;;;;;;;71.70;28.50;;;;;;;1.99;75.59;101304.98;114653;1198;22619;-82
2021/10/25 01:16:54;;;;;;;62.70;26.80;;;;;;;1.99;75.67;101302.55;114747;1196;22442;-82
2021/10/25 01:19:22;;;;;;;64.50;26.80;;;;;;;1.96;75.67;101300.44;115099;1198;23279;-81
2021/10/25 01:21:51;;;;;;;57.50;25.30;;;;;;;1.94;75.68;101300.52;114989;1177;24035;-82
2021/10/25 01:24:20;;;;;;;60.00;24.50;;;;;;;1.93;75.69;101288.39;115022;1197;22415;-81
2021/10/25 01:26:48;;;;;;;57.70;24.60;;;;;;;1.90;75.75;101284.70;115018;1198;22901;-82
2021/10/25 01:29:21;;;;;;;61.50;25.30;;;;;;;1.89;75.67;101280.39;115133;1198;22471;-82
2021/10/25 01:31:51;;;;;;;56.80;23.60;;;;;;;1.86;75.77;101282.66;114588;1198;22907;-80
2021/10/25 01:34:19;;;;;;;58.40;24.80;;;;;;;1.85;75.84;101278.02;115109;1197;22459;-79
2021/10/25 01:36:47;;;;;;;60.40;23.60;;;;;;;1.82;75.85;101270.55;114974;1198;23280;-82
2021/10/25 01:39:16;;;;;;;59.90;23.90;;;;;;;1.81;75.77;101270.08;115013;1194;24032;-82
2021/10/25 01:41:44;;;;;;;54.20;24.70;;;;;;;1.79;75.87;101268.11;115087;1197;22534;-81
2021/10/25 01:44:13;;;;;;;49.70;22.30;;;;;;;1.79;75.99;101272.36;115094;1198;22417;-80
2021/10/25 01:46:44;;;;;;;56.30;23.30;;;;;;;1.79;75.95;101270.63;114989;1197;22415;-82
2021/10/25 01:49:12;;;;;;;54.50;21.50;;;;;;;1.77;76.00;101268.27;115068;1198;22423;-82
2021/10/25 01:51:40;;;;;;;54.40;22.50;;;;;;;1.76;76.00;101264.35;115135;1198;22439;-82
2021/10/25 01:54:10;;;;;;;54.10;22.00;;;;;;;1.75;75.92;101264.58;115135;1198;22515;-82
2021/10/25 01:56:39;;;;;;;;;;;;;;;1.74;76.01;101259.86;115128;1198;22903;-82
2021/10/25 01:59:08;;;;;;;57.40;22.00;;;;;;;1.73;76.05;101257.11;114969;1198;22432;-82
2021/10/25 02:01:36;;;;;;;50.70;20.30;;;;;;;1.73;75.99;101251.13;115116;1194;25160;-82
2021/10/25 02:04:06;;;;;;;52.10;22.10;;;;;;;1.72;75.98;101241.61;114988;1198;23127;-81
2021/10/25 02:06:34;;;;;;;61.10;24.20;;;;;;;1.70;76.07;101235.95;114425;1198;24715;-82
2021/10/25 02:09:04;;;;;;;56.30;21.00;;;;;;;1.70;76.11;101235.17;115071;1197;26306;-80
2021/10/25 02:11:32;;;;;;;50.90;21.30;;;;;;;1.68;76.06;101236.42;114583;1198;24086;-82
2021/10/25 02:14:01;;;;;;;55.50;21.70;;;;;;;1.66;76.00;101234.08;115004;1198;25170;-82
2021/10/25 02:16:30;;;;;;;51.40;21.20;;;;;;;1.62;75.89;101223.45;115095;1177;24003;-82
2021/10/25 02:18:58;;;;;;;51.60;20.60;;;;;;;1.62;76.01;101227.95;114497;1198;25037;-83
2021/10/25 02:21:28;;;;;;;52.60;20.20;;;;;;;1.60;75.93;101223.45;114680;1193;22406;-82
2021/10/25 02:23:56;;;;;;;54.50;21.20;;;;;;;1.59;75.93;101220.46;114678;1198;22432;-82
2021/10/25 02:26:25;;;;;;;56.20;18.60;;;;;;;1.57;75.92;101215.83;115123;1193;22460;-82
2021/10/25 02:28:53;;;;;;;53.70;19.50;;;;;;;1.57;75.94;101214.19;115061;1198;22434;-81
2021/10/25 02:31:21;;;;;;;52.50;19.30;;;;;;;1.56;75.96;101223.30;115177;1192;25321;-82
2021/10/25 02:33:50;;;;;;;44.00;18.00;;;;;;;1.53;75.99;101215.84;115154;1184;25354;-82
2021/10/25 02:36:20;;;;;;;56.00;20.70;;;;;;;1.51;76.00;101211.36;115824;1198;22460;-81
2021/10/25 02:38:49;;;;;;;46.50;18.30;;;;;;;1.50;75.99;101206.02;115553;1193;22540;-81
2021/10/25 02:41:18;;;;;;;48.80;18.00;;;;;;;1.50;76.01;101212.92;115124;1197;21903;-82
2021/10/25 02:43:50;;;;;;;49.00;19.70;;;;;;;1.49;76.05;101207.04;115097;1198;26547;-82
2021/10/25 02:46:23;;;;;;;50.40;19.90;;;;;;;1.48;76.20;101200.11;114773;1198;22516;-82
2021/10/25 02:48:52;;;;;;;49.10;19.90;;;;;;;1.47;76.12;101209.15;115072;1192;25303;-81
2021/10/25 02:51:21;;;;;;;42.20;18.00;;;;;;;1.47;76.16;101211.59;114620;1198;23932;-81
2021/10/25 02:53:53;;;;;;;45.10;19.40;;;;;;;1.46;76.14;101209.55;115163;1198;22561;-82
2021/10/25 02:56:23;;;;;;;52.20;19.10;;;;;;;1.44;76.15;101202.23;114997;1198;22880;-82
2021/10/25 02:58:51;;;;;;;40.90;17.70;;;;;;;1.43;76.19;101200.04;114957;1198;22406;-82
2021/10/25 03:01:20;;;;;;;46.20;18.20;;;;;;;1.42;76.24;101203.11;115164;1193;22460;-82
2021/10/25 03:03:49;;;;;;;39.80;16.30;;;;;;;1.41;76.21;101198.86;114950;1193;22492;-82
2021/10/25 03:06:17;;;;;;;46.20;19.00;;;;;;;1.39;76.29;101196.11;115032;1192;23990;-82
2021/10/25 03:08:46;;;;;;;45.90;17.70;;;;;;;1.38;76.26;101193.83;115193;1197;22453;-82
2021/10/25 03:11:15;;;;;;;45.80;17.20;;;;;;;1.37;76.29;101193.13;115105;1193;24117;-82
2021/10/25 03:13:43;;;;;;;43.40;17.00;;;;;;;1.35;76.21;101191.71;115292;1197;25306;-81
2021/10/25 03:16:11;;;;;;;39.10;15.10;;;;;;;1.36;76.24;101191.47;115517;1198;23657;-81
2021/10/25 03:18:39;;;;;;;52.10;23.00;;;;;;;1.35;76.25;101192.89;116685;1192;22427;-81
2021/10/25 03:21:09;;;;;;;50.70;23.40;;;;;;;1.35;76.26;101191.08;117052;1198;22420;-82
2021/10/25 03:23:38;;;;;;;38.40;17.30;;;;;;;1.34;76.22;101190.14;116116;1193;23966;-81
2021/10/25 03:26:07;;;;;;;45.30;18.20;;;;;;;1.33;76.23;101186.76;115323;1198;25111;-81
2021/10/25 03:28:37;;;;;;;37.70;15.30;;;;;;;1.33;76.29;101185.82;115442;1169;22403;-76
2021/10/25 03:31:06;;;;;;;37.90;15.00;;;;;;;1.31;76.23;101187.79;113908;1198;24084;-76
2021/10/25 03:33:35;;;;;;;35.50;14.70;;;;;;;1.30;76.38;101188.58;113730;1190;22657;-76
2021/10/25 03:36:05;;;;;;;40.30;14.30;;;;;;;1.28;76.39;101188.00;113958;1190;22446;-76
2021/10/25 03:38:36;;;;;;;36.20;12.90;;;;;;;1.28;76.39;101179.30;113779;1197;22503;-76
2021/10/25 03:41:08;;;;;;;32.10;12.70;;;;;;;1.26;76.47;101177.80;113728;1197;22439;-76
2021/10/25 03:43:40;;;;;;;37.30;13.70;;;;;;;1.27;76.57;101174.89;113734;1197;25138;-76
2021/10/25 03:46:12;;;;;;;32.50;13.50;;;;;;;1.25;76.56;101173.00;113690;1197;25188;-76
2021/10/25 03:48:43;;;;;;;42.70;14.40;;;;;;;1.25;76.70;101169.15;113753;1197;22424;-76
2021/10/25 03:51:13;;;;;;;34.80;14.10;;;;;;;1.24;76.74;101167.98;113791;1197;22520;-75
2021/10/25 03:53:48;;;;;;;39.80;16.70;;;;;;;1.24;76.63;101162.48;113735;1197;22495;-75
2021/10/25 03:56:27;;;;;;;69.10;28.50;;;;;;;1.25;76.66;101150.69;113711;1197;22480;-76
2021/10/25 04:13:30;;;;;;;41.30;17.00;;;;;;;1.21;76.93;101137.72;112797;1206;25393;-79
2021/10/25 04:27:17;;;;;;;39.00;14.80;;;;;;;1.13;76.88;101128.14;112698;1203;23126;-80
2021/10/25 04:29:49;;;;;;;44.70;15.40;;;;;;;1.11;76.72;101132.23;112640;1208;25186;-79
2021/10/25 04:32:16;;;;;;;39.90;15.00;;;;;;;1.09;76.76;101125.94;112602;1208;22664;-79
2021/10/25 04:34:45;;;;;;;39.10;14.60;;;;;;;1.08;76.83;101129.47;112661;1208;25039;-80
2021/10/25 04:37:13;;;;;;;36.70;13.30;;;;;;;1.06;76.79;101136.39;112766;1204;22571;-80
2021/10/25 04:39:41;;;;;;;34.90;13.90;;;;;;;1.04;76.76;101138.98;112783;1206;22475;-77
2021/10/25 04:42:09;;;;;;;34.10;12.50;;;;;;;1.00;76.75;101138.44;112989;1203;25207;-78
2021/10/25 04:44:37;;;;;;;37.50;14.30;;;;;;;0.95;76.78;101135.45;113094;1200;24169;-77
2021/10/25 04:47:05;;;;;;;45.50;17.50;;;;;;;0.92;76.76;101130.26;113394;1200;23547;-78
2021/10/25 04:49:33;;;;;;;51.10;16.20;;;;;;;0.90;76.78;101132.23;113290;1200;22438;-77
2021/10/25 04:52:02;;;;;;;42.40;17.00;;;;;;;0.89;76.75;101130.66;113595;1199;22448;-77
2021/10/25 04:54:31;;;;;;;43.50;18.00;;;;;;;0.87;76.80;101128.67;113658;1200;22571;-76
2021/10/25 04:56:59;;;;;;;43.50;18.30;;;;;;;0.84;76.74;101129.70;113793;1193;22436;-77
2021/10/25 04:59:27;;;;;;;48.00;19.80;;;;;;;0.82;76.88;101126.17;113994;1198;22559;-76
2021/10/25 05:01:56;;;;;;;54.20;22.30;;;;;;;0.82;76.86;101125.54;113958;1197;23340;-76
2021/10/25 05:04:23;;;;;;;44.60;18.50;;;;;;;0.80;76.88;101124.29;113881;1197;26443;-77
2021/10/25 05:06:52;;;;;;;37.10;16.60;;;;;;;0.80;76.92;101128.38;114167;1190;22541;-77
2021/10/25 05:09:20;;;;;;;39.50;16.30;;;;;;;0.80;76.95;101125.01;113977;1198;22474;-77
2021/10/25 05:11:48;;;;;;;40.60;17.20;;;;;;;0.79;77.04;101124.68;113880;1197;25296;-77
2021/10/25 05:14:16;;;;;;;38.70;17.40;;;;;;;0.78;76.99;101125.23;113882;1197;22549;-77
2021/10/25 05:16:44;;;;;;;39.90;15.20;;;;;;;0.77;76.98;101126.88;113920;1197;25020;-77
2021/10/25 05:19:12;;;;;;;40.80;15.10;;;;;;;0.76;76.95;101128.52;113804;1197;25179;-78
2021/10/25 05:21:40;;;;;;;37.40;15.30;;;;;;;0.75;76.94;101126.02;113705;1197;25212;-78
2021/10/25 05:24:08;;;;;;;39.30;14.80;;;;;;;0.75;77.11;101123.65;113976;1197;22450;-79
2021/10/25 05:26:36;;;;;;;40.30;16.30;;;;;;;0.74;77.09;101120.20;113704;1197;23984;-76
2021/10/25 05:29:04;;;;;;;40.00;13.60;;;;;;;0.74;77.03;101119.73;113714;1198;25339;-78
2021/10/25 05:31:32;;;;;;;34.40;12.70;;;;;;;0.74;77.10;101126.96;113783;1197;22443;-78
2021/10/25 05:34:01;;;;;;;29.40;12.70;;;;;;;0.72;77.18;101118.54;113805;1197;22502;-78
2021/10/25 05:36:29;;;;;;;31.30;11.70;;;;;;;0.72;77.23;101119.48;113770;1197;22428;-78
2021/10/25 05:38:57;;;;;;;29.70;10.50;;;;;;;0.72;77.28;101116.73;113814;1197;24060;-77
2021/10/25 05:41:27;;;;;;;30.20;8.30;;;;;;;0.71;77.25;101114.54;113876;1197;24197;-78
2021/10/25 05:43:55;;;;;;;28.40;9.10;;;;;;;0.69;77.29;101116.02;113986;1197;23001;-78
2021/10/25 05:46:23;;;;;;;23.30;8.00;;;;;;;0.70;77.42;101108.25;113809;1197;25347;-77
2021/10/25 05:48:55;;;;;;;26.30;9.50;;;;;;;0.71;77.51;101106.53;113788;1197;26349;-77
2021/10/25 05:51:23;;;;;;;28.20;9.80;;;;;;;0.73;77.45;101112.02;113773;1197;23440;-77
2021/10/25 05:53:51;;;;;;;27.60;9.60;;;;;;;0.74;77.59;101107.17;113623;1198;24187;-78
2021/10/25 05:56:19;;;;;;;28.30;10.60;;;;;;;0.75;77.69;101111.23;113676;1197;24153;-78
2021/10/25 05:58:48;;;;;;;26.20;9.50;;;;;;;0.74;77.83;101107.23;113700;1198;22414;-76
2021/10/25 06:01:18;;;;;;;24.80;8.00;;;;;;;0.76;77.97;101111.01;113930;1197;22551;-75
2021/10/25 06:03:48;;;;;;;23.70;7.10;;;;;;;0.78;78.05;101107.23;113721;1197;22633;-76
2021/10/25 06:06:16;;;;;;;28.20;8.80;;;;;;;0.82;78.16;101107.16;113749;1197;24041;-75
2021/10/25 06:08:44;;;;;;;25.00;7.20;;;;;;;0.84;78.10;101108.58;113905;1193;25146;-76
2021/10/25 06:11:13;;;;;;;22.20;7.10;;;;;;;0.87;78.19;101108.26;113815;1197;25131;-77
2021/10/25 06:13:43;;;;;;;24.30;8.50;;;;;;;0.90;78.17;101107.63;114296;1197;22561;-76
2021/10/25 06:16:15;;;;;;;22.00;8.20;;;;;;;0.93;78.25;101108.11;113783;1197;24087;-76
2021/10/25 06:18:44;;;;;;;25.30;6.80;;;;;;;0.95;78.20;101106.70;113840;1197;25311;-77
2021/10/25 06:21:12;;;;;;;21.00;8.10;;;;;;;0.98;78.25;101101.67;113715;1197;23113;-76
2021/10/25 06:23:41;;;;;;;20.40;6.90;;;;;;;1.00;78.28;101101.04;113744;1197;25123;-76
2021/10/25 06:26:11;;;;;;;26.30;7.70;;;;;;;1.03;78.34;101097.58;113778;1198;22614;-76
2021/10/25 06:28:39;;;;;;;26.00;8.30;;;;;;;1.06;78.38;101099.16;113781;1197;22439;-76
2021/10/25 06:31:08;;;;;;;24.40;7.20;;;;;;;1.10;78.34;101097.58;113745;1198;22553;-76
2021/10/25 06:33:42;;;;;;;29.00;8.40;;;;;;;1.14;78.39;101100.48;113741;1197;25126;-77
2021/10/25 06:36:11;;;;;;;20.40;8.20;;;;;;;1.18;78.41;101098.75;113761;1197;22617;-76
2021/10/25 06:38:43;;;;;;;26.40;8.80;;;;;;;1.21;78.52;101096.46;113854;1197;22553;-76
2021/10/25 06:41:12;;;;;;;27.70;8.60;;;;;;;1.25;78.50;101097.00;113909;1197;23382;-76
2021/10/25 06:43:41;;;;;;;31.30;10.10;;;;;;;1.29;78.60;101097.72;113723;1197;22420;-76
2021/10/25 06:46:10;;;;;;;30.30;10.80;;;;;;;1.35;78.60;101092.98;113737;1197;25132;-76
2021/10/25 06:48:38;;;;;;;28.00;8.80;;;;;;;1.40;78.59;101092.83;113769;1190;24199;-76
2021/10/25 06:51:06;;;;;;;20.90;7.40;;;;;;;1.44;78.73;101092.26;113706;1197;25104;-76
2021/10/25 06:53:34;;;;;;;22.70;8.50;;;;;;;1.50;78.75;101093.81;113795;1197;24106;-76
2021/10/25 06:56:02;;;;;;;26.10;7.80;;;;;;;1.55;78.70;101091.77;113708;1198;25058;-76
2021/10/25 06:58:32;;;;;;;27.90;8.70;;;;;;;1.60;78.81;101093.00;113827;1197;22423;-76
2021/10/25 07:01:01;;;;;;;30.10;7.80;;;;;;;1.65;78.94;101087.80;113777;1197;22474;-75
2021/10/25 07:03:30;;;;;;;23.60;8.30;;;;;;;1.71;78.98;101090.70;113696;1197;25437;-76
2021/10/25 07:06:01;;;;;;;22.50;8.20;;;;;;;1.76;78.91;101092.48;113671;1197;25283;-76
2021/10/25 07:08:31;;;;;;;24.70;6.70;;;;;;;1.82;79.13;101096.79;113789;1197;22549;-76
2021/10/25 07:10:59;;;;;;;25.20;7.00;;;;;;;1.89;79.17;101096.53;113780;1197;22494;-77
2021/10/25 07:13:27;;;;;;;23.10;6.80;;;;;;;1.95;79.22;101092.02;113691;1197;26294;-76
2021/10/25 07:16:01;;;;;;;30.70;9.30;;;;;;;2.01;79.29;101096.55;113728;1197;22422;-76
2021/10/25 07:18:33;;;;;;;30.30;9.90;;;;;;;2.09;79.29;101096.27;113716;1197;22437;-77
2021/10/25 08:00:31;;;;;;;26.10;6.10;;;;;;;3.55;79.87;101078.98;112684;1207;22432;-76
2021/10/25 08:03:22;;;;;;;16.70;4.50;;;;;;;3.70;79.63;101081.89;113004;1203;22439;-76
2021/10/25 08:08:59;;;;;;;14.40;3.20;;;;;;;3.98;79.03;101073.50;113382;1200;22440;-77
2021/10/25 08:11:38;;;;;;;18.30;4.90;;;;;;;4.09;78.91;101075.41;113407;1200;22555;-78
2021/10/25 08:14:08;;;;;;;14.70;3.10;;;;;;;4.18;78.75;101069.13;113666;1197;25026;-77
2021/10/25 08:16:45;;;;;;;20.10;4.20;;;;;;;4.29;78.71;101071.34;113826;1197;22443;-76
2021/10/25 08:19:23;;;;;;;14.90;3.60;;;;;;;4.45;78.70;101071.42;113771;1197;25321;-76
2021/10/25 08:21:53;;;;;;;18.80;4.30;;;;;;;4.57;78.40;101068.32;113926;1197;25189;-76
2021/10/25 08:24:22;;;;;;;21.00;4.20;;;;;;;4.70;78.35;101068.05;113811;1197;25118;-77
2021/10/25 08:26:51;;;;;;;13.20;2.70;;;;;;;4.80;78.13;101066.38;113872;1197;22421;-76
2021/10/25 08:29:20;;;;;;;22.20;3.30;;;;;;;4.91;77.96;101068.57;113694;1197;25131;-77
2021/10/25 08:31:54;;;;;;;19.60;4.30;;;;;;;5.04;77.66;101073.10;113770;1190;24980;-76
2021/10/25 08:39:58;;;;;;;14.90;2.40;;;;;;;5.48;76.69;101068.82;113664;1197;25126;-77
2021/10/25 08:42:30;;;;;;;14.00;2.20;;;;;;;5.63;76.48;101063.86;113844;1197;24092;-76
2021/10/25 08:45:05;;;;;;;13.80;2.40;;;;;;;5.74;76.20;101053.52;113652;1197;22434;-76
2021/10/25 08:47:37;;;;;;;15.00;2.60;;;;;;;5.85;75.89;101054.26;113815;1190;24041;-76
2021/10/25 08:50:10;;;;;;;11.40;2.20;;;;;;;5.95;75.71;101060.09;113851;1197;22476;-76
2021/10/25 08:52:39;;;;;;;14.00;1.90;;;;;;;6.07;75.60;101057.75;113941;1197;22564;-75
2021/10/25 08:55:11;;;;;;;16.00;2.50;;;;;;;6.19;75.37;101057.02;113775;1197;24854;-76
2021/10/25 08:57:39;;;;;;;11.70;2.20;;;;;;;6.30;74.62;101055.67;114024;1197;22429;-76
2021/10/25 09:00:12;;;;;;;15.50;2.70;;;;;;;6.44;74.36;101050.66;113831;1197;23539;-75
2021/10/25 09:02:42;;;;;;;11.60;2.60;;;;;;;6.64;74.15;101045.23;113797;1197;25113;-76
2021/10/25 09:05:16;;;;;;;10.90;2.20;;;;;;;6.82;73.80;101048.02;113919;1197;23243;-76
2021/10/25 09:07:53;;;;;;;10.10;2.00;;;;;;;6.95;73.66;101048.41;114217;1197;24666;-76
2021/10/25 09:10:27;;;;;;;14.00;2.20;;;;;;;7.07;73.35;101053.35;113776;1197;22412;-77
2021/10/25 09:12:59;;;;;;;15.40;2.60;;;;;;;7.19;73.16;101051.02;114305;1197;22436;-77
2021/10/25 09:15:29;;;;;;;10.50;2.60;;;;;;;7.31;73.12;101049.77;114044;1197;25137;-75
2021/10/25 09:18:05;;;;;;;12.70;2.60;;;;;;;7.41;73.16;101045.71;114067;1197;22389;-76
2021/10/25 09:20:43;;;;;;;13.30;2.10;;;;;;;7.49;72.41;101039.14;113779;1190;25129;-75
2021/10/25 09:23:13;;;;;;;14.10;2.30;;;;;;;7.60;71.88;101039.94;113870;1197;22445;-76
2021/10/25 09:25:42;;;;;;;14.40;1.80;;;;;;;7.75;71.33;101039.59;113841;1190;22474;-76
2021/10/25 09:28:25;;;;;;;8.30;1.30;;;;;;;7.90;71.21;101038.66;113975;1197;24454;-76
2021/10/25 09:30:57;;;;;;;8.80;1.30;;;;;;;8.02;70.82;101031.79;113986;1197;25164;-77
2021/10/25 09:33:33;;;;;;;9.30;1.30;;;;;;;8.11;69.79;101022.52;114288;1190;22418;-76
2021/10/25 09:36:08;;;;;;;9.20;1.30;;;;;;;8.26;69.76;101024.59;114118;1197;23132;-76
2021/10/25 09:38:49;;;;;;;10.30;1.60;;;;;;;8.38;69.37;101020.55;114062;1197;22506;-76
2021/10/25 09:49:57;;;;;;;12.30;1.20;;;;;;;8.75;67.57;101013.61;113424;1200;22474;-76
2021/10/25 09:52:30;;;;;;;8.30;1.40;;;;;;;8.85;67.59;101011.23;113470;1200;22427;-76
2021/10/25 09:55:02;;;;;;;10.70;1.60;;;;;;;8.96;66.75;101009.48;113410;1200;25271;-77
2021/10/25 09:57:38;;;;;;;9.70;1.40;;;;;;;9.07;66.15;101009.52;113473;1200;22461;-77
2021/10/25 10:00:11;;;;;;;7.60;1.10;;;;;;;9.21;65.83;101012.20;113440;1200;22432;-77
2021/10/25 10:02:41;;;;;;;8.50;1.40;;;;;;;9.31;65.59;101007.95;113440;1200;24229;-77
2021/10/25 10:05:12;;;;;;;7.30;1.10;;;;;;;9.39;64.64;101006.56;113388;1200;22465;-77
2021/10/25 10:07:42;;;;;;;10.70;1.30;;;;;;;9.52;64.76;101002.27;113442;1200;25135;-77
2021/10/25 10:10:15;;;;;;;4.90;1.30;;;;;;;9.64;64.17;100997.83;113461;1200;22449;-77
2021/10/25 10:12:46;;;;;;;12.10;1.30;;;;;;;9.75;64.01;100998.30;113450;1200;22428;-77
2021/10/25 10:15:15;;;;;;;9.30;1.60;;;;;;;9.78;64.02;100993.73;113378;1200;22415;-77
2021/10/25 10:17:53;;;;;;;6.30;1.20;;;;;;;9.82;63.86;100996.06;113389;1193;24302;-77
2021/10/25 10:20:30;;;;;;;13.20;1.70;;;;;;;9.91;63.43;101000.01;113531;1193;22578;-76
2021/10/25 10:23:04;;;;;;;11.10;1.80;;;;;;;9.98;63.40;101000.70;113503;1200;22422;-77
2021/10/25 10:25:35;;;;;;;10.20;1.80;;;;;;;10.02;63.13;101004.67;113877;1197;22553;-76
2021/10/25 10:28:07;;;;;;;9.30;1.50;;;;;;;10.07;63.09;100997.47;113857;1197;22430;-77
2021/10/25 10:30:50;;;;;;;11.90;2.50;;;;;;;10.12;62.68;100991.01;113898;1197;23243;-77
2021/10/25 10:33:33;;;;;;;9.50;1.60;;;;;;;10.16;62.44;100989.60;113892;1183;22412;-77
2021/10/25 10:36:11;;;;;;;10.20;1.30;;;;;;;10.19;62.28;100980.08;113766;1193;23771;-77
2021/10/25 10:38:52;;;;;;;8.10;1.80;;;;;;;10.22;61.94;100982.72;113882;1197;25126;-76
2021/10/25 10:41:23;;;;;;;9.60;1.60;;;;;;;10.26;61.73;100982.51;113811;1197;22412;-78
2021/10/25 10:44:11;;;;;;;9.40;1.40;;;;;;;10.27;61.41;100981.40;113913;1197;22623;-77
2021/10/25 10:46:49;;;;;;;10.90;1.40;;;;;;;10.37;60.97;100976.14;113765;1197;22522;-77
2021/10/25 10:49:27;;;;;;;5.30;1.30;;;;;;;10.43;60.78;100974.95;113868;1197;23081;-77
2021/10/25 10:52:11;;;;;;;6.20;1.40;;;;;;;10.47;60.33;100964.17;114048;1197;25059;-77
2021/10/25 10:54:45;;;;;;;7.90;1.30;;;;;;;10.54;60.20;100969.40;113812;1197;22404;-78
2021/10/25 10:57:42;;;;;;;9.50;1.40;;;;;;;10.60;60.19;100966.99;113802;1197;22471;-76
2021/10/25 11:00:22;;;;;;;10.20;1.40;;;;;;;10.67;60.13;100957.61;113814;1190;22435;-76
2021/10/25 11:02:52;;;;;;;9.10;1.30;;;;;;;10.67;59.76;100952.42;113850;1183;22426;-77
2021/10/25 11:05:30;;;;;;;7.60;1.60;;;;;;;10.69;59.54;100953.92;113789;1197;25045;-77
2021/10/25 11:08:08;;;;;;;11.50;1.40;;;;;;;10.74;59.35;100952.85;114025;1197;22412;-76
2021/10/25 11:10:37;;;;;;;10.00;1.60;;;;;;;10.77;59.03;100950.40;114007;1197;22424;-77
2021/10/25 11:13:08;;;;;;;;;;;;;;;10.86;58.65;100951.70;113772;1197;22562;-76
2021/10/25 11:15:40;;;;;;;8.60;1.30;;;;;;;10.94;58.18;100954.04;113951;1197;25108;-77
2021/10/25 11:18:08;;;;;;;9.90;1.40;;;;;;;11.04;58.39;100950.89;113876;1197;22467;-77
2021/10/25 11:20:37;;;;;;;7.20;1.50;;;;;;;11.11;58.16;100954.03;113814;1197;22509;-78
2021/10/25 11:23:07;;;;;;;9.00;1.90;;;;;;;11.19;57.83;100946.79;113784;1190;22447;-76
2021/10/25 11:25:44;;;;;;;10.80;1.60;;;;;;;11.28;57.83;100944.42;113953;1197;22503;-77
2021/10/25 11:28:21;;;;;;;6.30;1.60;;;;;;;11.31;57.11;100942.34;113956;1197;22488;-77
2021/10/25 11:30:49;;;;;;;9.00;1.30;;;;;;;11.35;56.91;100942.09;113849;1197;25277;-77
2021/10/25 11:33:20;;;;;;;7.10;1.60;;;;;;;11.38;56.95;100934.29;113835;1197;23638;-77
2021/10/25 11:35:51;;;;;;;12.50;1.70;;;;;;;11.43;56.33;100938.41;113882;1197;22413;-77
2021/10/25 11:38:19;;;;;;;6.70;1.20;;;;;;;11.50;56.22;100940.95;113895;1197;22426;-77
2021/10/25 11:40:47;;;;;;;9.40;1.30;;;;;;;11.57;55.71;100940.16;113893;1197;22461;-77
2021/10/25 11:43:16;;;;;;;7.70;1.20;;;;;;;11.60;55.38;100942.55;113861;1197;23788;-77
2021/10/25 11:45:44;;;;;;;11.40;2.20;;;;;;;11.59;55.34;100936.61;113874;1197;25010;-78
2021/10/25 11:48:13;;;;;;;10.40;1.80;;;;;;;11.59;55.19;100935.27;113860;1197;22432;-78
2021/10/25 11:50:41;;;;;;;12.30;1.90;;;;;;;11.61;55.12;100933.91;113920;1197;22471;-76
2021/10/25 11:53:11;;;;;;;11.10;1.80;;;;;;;11.61;54.82;100930.61;113847;1197;22483;-77
2021/10/25 11:55:41;;;;;;;6.60;1.30;;;;;;;11.62;54.81;100925.52;113790;1190;22430;-77
2021/10/25 11:58:13;;;;;;;9.60;1.90;;;;;;;11.66;54.96;100922.80;113920;1197;23955;-77
2021/10/25 12:00:44;;;;;;;14.70;3.00;;;;;;;11.64;54.65;100913.91;113847;1197;22460;-77
2021/10/25 12:03:14;;;;;;;7.70;1.50;;;;;;;11.61;54.27;100912.16;113882;1197;25045;-77
2021/10/25 12:05:42;;;;;;;;;;;;;;;11.65;54.22;100914.05;113868;1197;22887;-77
2021/10/25 12:08:13;;;;;;;9.80;1.30;;;;;;;11.69;54.28;100911.23;113908;1197;22435;-77
2021/10/25 12:10:42;;;;;;;;;;;;;;;11.73;54.27;100905.13;113657;1197;22406;-77
2021/10/25 12:13:12;;;;;;;10.60;1.40;;;;;;;11.76;54.29;100913.00;113820;1197;22690;-77
2021/10/25 12:15:47;;;;;;;6.10;1.70;;;;;;;11.77;53.92;100905.83;113934;1197;25044;-77
2021/10/25 12:18:19;;;;;;;8.20;1.80;;;;;;;11.81;54.04;100900.55;113963;1197;22421;-77
2021/10/25 12:20:48;;;;;;;6.80;1.20;;;;;;;11.86;53.41;100899.02;113841;1197;26509;-77
2021/10/25 12:23:19;;;;;;;8.80;1.60;;;;;;;11.92;53.32;100901.04;113801;1190;22441;-77
2021/10/25 12:25:54;;;;;;;8.40;1.20;;;;;;;11.93;53.25;100898.52;114032;1197;22480;-77
2021/10/25 12:28:24;;;;;;;6.40;1.60;;;;;;;11.95;53.24;100894.10;113901;1197;22456;-76
2021/10/25 12:31:07;;;;;;;9.90;1.70;;;;;;;11.97;52.77;100894.37;113870;1197;22428;-78
2021/10/25 12:33:37;;;;;;;7.60;1.00;;;;;;;12.03;51.54;100892.27;113844;1197;22904;-77
2021/10/25 12:36:12;;;;;;;7.40;1.00;;;;;;;12.22;50.53;100891.92;113887;1197;22485;-78
2021/10/25 12:38:43;;;;;;;4.20;0.70;;;;;;;12.33;50.02;100886.63;113942;1197;25162;-77
2021/10/25 12:41:13;;;;;;;4.30;0.70;;;;;;;12.43;49.70;100885.23;113956;1197;25145;-76
2021/10/25 12:43:44;;;;;;;5.90;0.80;;;;;;;12.50;49.40;100878.49;113864;1190;22443;-77
2021/10/25 12:46:16;;;;;;;6.50;0.80;;;;;;;12.56;48.54;100871.88;113805;1197;22557;-77
2021/10/25 12:48:47;;;;;;;4.60;0.70;;;;;;;12.66;48.47;100874.30;113993;1197;22419;-77
2021/10/25 12:51:16;;;;;;;9.20;0.90;;;;;;;12.71;48.79;100872.63;113896;1197;25111;-77
2021/10/25 12:53:46;;;;;;;7.90;1.20;;;;;;;12.74;48.74;100868.35;113844;1190;24991;-77